createdAt,value
2019-03-22T00:00:32.919Z,7.74
2019-03-22T00:03:02.463Z,7.79
2019-03-22T00:05:32.005Z,7.85
2019-03-22T00:08:01.644Z,7.96
2019-03-22T00:10:31.272Z,8.04
2019-03-22T00:13:00.816Z,8.11
2019-03-22T00:15:30.508Z,8.19
2019-03-22T00:18:00.052Z,8.25
2019-03-22T00:20:29.837Z,8.34
2019-03-22T00:22:59.533Z,8.39
2019-03-22T00:25:29.073Z,8.45
2019-03-22T00:27:58.629Z,8.52
2019-03-22T00:30:28.372Z,8.59
2019-03-22T00:32:57.916Z,8.65
2019-03-22T00:35:27.466Z,8.73
2019-03-22T00:37:57.114Z,8.81
2019-03-22T00:40:26.660Z,8.92
2019-03-22T00:42:56.209Z,9.01
2019-03-22T00:45:25.771Z,9.10
2019-03-22T00:47:55.307Z,9.18
2019-03-22T00:50:24.848Z,9.26
2019-03-22T00:52:54.426Z,9.33
2019-03-22T00:55:23.964Z,9.39
2019-03-22T00:57:53.512Z,9.42
2019-03-22T01:00:23.158Z,9.46
2019-03-22T01:02:52.707Z,9.50
2019-03-22T01:05:22.321Z,9.52
2019-03-22T01:07:51.976Z,9.55
2019-03-22T01:10:21.521Z,9.57
2019-03-22T01:12:51.059Z,9.60
2019-03-22T01:15:20.802Z,9.61
2019-03-22T01:17:50.346Z,9.63
2019-03-22T01:20:19.895Z,9.64
2019-03-22T01:22:49.742Z,9.66
2019-03-22T01:25:19.287Z,9.67
2019-03-22T01:27:48.841Z,9.67
2019-03-22T01:30:19.340Z,9.66
2019-03-22T01:32:48.887Z,9.65
2019-03-22T01:35:18.507Z,9.66
2019-03-22T01:37:48.297Z,9.65
2019-03-22T01:40:18.056Z,9.64
2019-03-22T01:42:47.617Z,9.63
2019-03-22T01:45:17.399Z,9.62
2019-03-22T01:47:47.086Z,9.63
2019-03-22T01:50:18.239Z,9.64
2019-03-22T01:52:48.195Z,9.65
2019-03-22T01:55:17.775Z,9.65
2019-03-22T01:57:53.393Z,9.66
2019-03-22T02:00:19.838Z,9.64
2019-03-22T02:02:49.377Z,9.62
2019-03-22T02:05:19.554Z,9.62
2019-03-22T02:07:49.136Z,9.62
2019-03-22T02:10:19.202Z,9.64
2019-03-22T02:12:48.838Z,9.64
2019-03-22T02:15:18.490Z,9.68
2019-03-22T02:17:48.195Z,9.71
2019-03-22T02:20:18.788Z,9.74
2019-03-22T02:22:48.376Z,9.76
2019-03-22T02:25:18.006Z,9.78
2019-03-22T02:27:47.576Z,9.80
2019-03-22T02:30:19.029Z,9.81
2019-03-22T02:32:48.585Z,9.82
2019-03-22T02:35:28.414Z,9.82
2019-03-22T02:37:49.700Z,9.84
2019-03-22T02:40:19.648Z,9.86
2019-03-22T02:42:49.212Z,9.90
2019-03-22T02:45:19.060Z,9.94
2019-03-22T02:47:48.687Z,9.97
2019-03-22T02:50:19.807Z,9.99
2019-03-22T02:52:49.644Z,10.00
2019-03-22T02:55:19.204Z,10.00
2019-03-22T02:57:48.840Z,10.00
2019-03-22T03:00:19.825Z,10.01
2019-03-22T03:02:49.792Z,10.02
2019-03-22T03:05:19.690Z,10.04
2019-03-22T03:07:49.359Z,10.05
2019-03-22T03:10:19.103Z,10.03
2019-03-22T03:12:48.656Z,10.03
2019-03-22T03:15:19.279Z,10.02
2019-03-22T03:17:48.929Z,10.03
2019-03-22T03:20:20.197Z,10.06
2019-03-22T03:22:49.866Z,10.08
2019-03-22T03:25:19.756Z,10.09
2019-03-22T03:27:49.333Z,10.10
2019-03-22T03:30:22.895Z,10.09
2019-03-22T03:32:52.491Z,10.11
2019-03-22T03:35:22.112Z,10.12
2019-03-22T03:37:51.701Z,10.10
2019-03-22T03:40:21.340Z,10.08
2019-03-22T03:42:50.909Z,10.03
2019-03-22T20:02:42.043Z,8.04
2019-03-22T20:05:11.750Z,7.97
2019-03-22T20:07:41.304Z,7.94
2019-03-22T20:10:13.475Z,7.93
2019-03-22T20:12:43.029Z,7.91
2019-03-22T20:15:12.725Z,7.89
2019-03-22T20:17:42.308Z,7.85
2019-03-22T20:20:12.356Z,7.82
2019-03-22T20:22:41.922Z,7.79
2019-03-22T20:25:13.723Z,7.74
2019-03-22T20:27:43.287Z,7.72
2019-03-22T20:30:18.200Z,7.71
2019-03-22T20:32:48.015Z,7.72
2019-03-22T20:35:17.648Z,7.70
2019-03-22T20:37:47.194Z,7.67
2019-03-22T20:40:20.690Z,7.66
2019-03-22T20:42:50.237Z,7.68
2019-03-22T20:45:24.442Z,7.68
2019-03-22T20:47:51.688Z,7.69
2019-03-22T20:50:21.238Z,7.70
2019-03-22T20:52:50.867Z,7.70
2019-03-22T20:55:20.462Z,7.69
2019-03-22T20:57:50.021Z,7.70
2019-03-22T21:00:19.721Z,7.68
2019-03-22T21:02:49.459Z,7.67
2019-03-22T21:05:27.016Z,7.68
2019-03-22T21:07:50.383Z,7.68
2019-03-22T21:10:20.358Z,7.65
2019-03-22T21:12:49.960Z,7.64
2019-03-22T21:15:24.449Z,7.62
2019-03-22T21:17:51.183Z,7.60
2019-03-22T21:20:20.732Z,7.58
2019-03-22T21:22:50.294Z,7.53
2019-03-22T21:25:20.066Z,7.47
2019-03-22T21:27:49.673Z,7.43
2019-03-22T21:30:19.249Z,7.39
2019-03-22T21:32:48.941Z,7.37
2019-03-22T21:35:22.921Z,7.36
2019-03-22T21:37:49.812Z,7.34
2019-03-22T21:40:19.506Z,7.33
2019-03-22T21:42:49.079Z,7.30
2019-03-22T21:45:18.708Z,7.28
2019-03-22T21:47:48.328Z,7.25
2019-03-22T21:50:17.960Z,7.22
2019-03-22T21:52:47.535Z,7.19
2019-03-22T21:55:17.260Z,7.17
2019-03-22T21:57:46.823Z,7.15
2019-03-22T22:00:17.085Z,7.12
2019-03-22T22:02:46.762Z,7.10
2019-03-22T22:05:16.305Z,7.07
2019-03-22T22:07:45.868Z,7.06
2019-03-22T22:10:15.521Z,7.06
2019-03-22T22:12:45.095Z,7.04
2019-03-22T22:15:14.983Z,7.05
2019-03-22T22:17:44.688Z,7.03
2019-03-22T22:20:14.590Z,7.03
2019-03-22T22:22:44.151Z,7.04
2019-03-22T22:25:14.284Z,7.03
2019-03-22T22:27:43.839Z,7.01
2019-03-22T22:30:13.988Z,6.99
2019-03-22T22:32:43.837Z,6.99
2019-03-22T22:35:13.531Z,6.97
2019-03-22T22:37:43.088Z,6.96
2019-03-22T22:40:13.879Z,6.94
2019-03-22T22:42:43.451Z,6.92
2019-03-22T22:45:14.020Z,6.89
2019-03-22T22:47:43.618Z,6.89
2019-03-22T22:50:14.382Z,6.88
2019-03-22T22:52:43.939Z,6.85
2019-03-22T22:55:13.664Z,6.82
2019-03-22T22:57:43.230Z,6.80
2019-03-22T23:00:16.994Z,6.79
2019-03-22T23:02:46.706Z,6.79
2019-03-22T23:05:16.374Z,6.78
2019-03-22T23:07:45.943Z,6.76
2019-03-22T23:10:15.663Z,6.75
2019-03-22T23:12:45.225Z,6.71
2019-03-22T23:15:15.527Z,6.71
2019-03-22T23:17:45.191Z,6.70
2019-03-22T23:20:14.981Z,6.71
2019-03-22T23:22:44.534Z,6.70
2019-03-22T23:25:14.279Z,6.69
2019-03-22T23:27:43.832Z,6.68
2019-03-22T23:30:14.627Z,6.66
2019-03-22T23:32:44.448Z,6.65
2019-03-22T23:35:14.081Z,6.65
2019-03-22T23:37:43.635Z,6.64
2019-03-22T23:40:14.500Z,6.61
2019-03-22T23:42:44.063Z,6.57
2019-03-22T23:45:13.833Z,6.54
2019-03-22T23:47:43.420Z,6.51
2019-03-22T23:50:13.119Z,6.47
2019-03-22T23:52:42.757Z,6.44
2019-03-22T23:55:12.787Z,6.43
2019-03-22T23:57:42.355Z,6.41
